Aérodrome :
LOGIN :

S'inscrire | Disclaimer

   EN    FR    IT 

 










Légende :    VFR   VFR Marginal   IFR   IFR Intensif   IFR Très Intensif
Visi : 
Plafond : 
>= 8 km
>= 3000ft
5 à 8 km
1000 à 3000 ft
1500m à 5 km
500 à 1000 ft
800 à 1500m
200 à 500 ft
< 800m
< 200 ft
Symboles :   Orages  Brouillard  Fortes neiges  Fortes précipitations  Vent > 20 kt
SIGMETs :   Divers  Orages  Givrage  Turbulence  Onde Orograph.  Cendres Volcan.







- Altitude de l'aérodrome : 1079 ft


ETIK - Illesheim Air Base

METARs EXPIRÉS :
  • 241358Z AUTO 25014G22KT 9999 CLR 26/10 A3001 RMK AO2 SLP153 T02630103
  • 241258Z AUTO 26014G24KT 9999 CLR 26/11 A3003 RMK AO2 SLP160 T02610109
  • 241215Z AUTO 28015G24KT 9999 CLR 26/11 A3003 RMK AO2 WSHFT 06 SLP158
  • 241158Z AUTO 26020G22KT 9999 CLR 25/11 A3003 RMK AO2 SLP160 T02510114 10254 20196 57008

TAF AMD TAF ETIK
Valide du 24 à 12h jusqu'au 25 à 11h UTC


241206Z 2412/2511 26012G18KT 9999 FEW050 QNH2994INS
BECMG 2421/2422 22006KT 9999 SCT050 QNH2995INS
BECMG 2508/2509 25010G15KT 9999 BKN050 QNH2997INS TX25/2415Z TN12/2505Z LAST NO AMDS AFT 2412 NEXT 2521
Pas de NOTAMs connus pour ce terrain.



MET'MAP, la Météo Aéronautique d'un coup d'oeil ! - Copyright ORBIFLY Décembre 2007 - Disclaimer

ORBIFLY MET'MAP TEAM :

Programmation & Développement : Alexandra Zaïnal
Conception & Développement : Baudouin d'Aumeries
Co-Programmation & Développement : Marc-Olivier Méhu
Soutien technique & logistique : Manuel Goepfert

Contact : metmap@orbifly.com




SOURCES & CREDITS :

   NOAA